createdAt,value
2016-05-16T13:02:40.711Z,1011.3
2016-05-16T13:03:40.760Z,1011.31
2016-05-16T13:04:40.794Z,1011.22
2016-05-16T13:05:40.828Z,1011.27
2016-05-16T13:06:40.862Z,1011.12
2016-05-16T13:07:40.911Z,1011.17
2016-05-16T13:08:40.945Z,1011.2
2016-05-16T13:09:40.980Z,1011.29
2016-05-16T13:10:41.029Z,1011.28
2016-05-16T13:11:41.063Z,1011.22
2016-05-16T13:12:41.096Z,1011.19
2016-05-16T13:13:41.130Z,1011.14
2016-05-16T13:14:41.165Z,1011.18
2016-05-16T13:15:41.214Z,1011.16
2016-05-16T13:16:41.249Z,1011.2
2016-05-16T13:17:41.282Z,1011.18
2016-05-16T13:18:41.332Z,1011.31
2016-05-16T13:19:41.365Z,1011.26
2016-05-16T13:20:41.399Z,1011.23
2016-05-16T13:21:41.434Z,1011.24
2016-05-16T13:22:41.468Z,1011.32
2016-05-16T13:23:41.517Z,1011.21
2016-05-16T13:24:41.551Z,1011.2
2016-05-16T13:25:41.585Z,1011.21
2016-05-16T13:26:41.618Z,1011.15
2016-05-16T13:27:41.653Z,1011.17
2016-05-16T13:28:41.702Z,1011.2
2016-05-16T13:29:41.737Z,1011.17
2016-05-16T13:30:41.786Z,1011.21
2016-05-16T13:31:41.820Z,1011.24
2016-05-16T13:32:41.869Z,1011.19
2016-05-16T13:33:41.887Z,1011.23
2016-05-16T13:34:41.922Z,1011.18
2016-05-16T13:35:41.971Z,1011.16
2016-05-16T13:36:42.005Z,1011.17
2016-05-16T13:37:42.039Z,1011.21
2016-05-16T13:38:42.073Z,1011.19
2016-05-16T13:39:42.122Z,1011.19
2016-05-16T13:40:42.156Z,1011.12
2016-05-16T13:41:42.191Z,1011.13
2016-05-16T13:42:42.225Z,1011.1
2016-05-16T13:43:42.258Z,1011.05
2016-05-16T13:44:42.308Z,1011.16
2016-05-16T13:45:42.342Z,1011.08
2016-05-16T13:46:42.376Z,1011.02
2016-05-16T13:47:42.409Z,1011
2016-05-16T13:48:42.459Z,1011.05
2016-05-16T13:49:42.494Z,1010.97
2016-05-16T13:50:42.527Z,1011
2016-05-16T13:51:42.560Z,1010.96
2016-05-16T13:52:42.595Z,1010.95
2016-05-16T13:53:42.645Z,1010.96
2016-05-16T13:54:42.679Z,1010.97
2016-05-16T13:55:42.712Z,1010.98
2016-05-16T13:56:42.762Z,1010.92
2016-05-16T13:57:42.796Z,1010.91
2016-05-16T13:58:42.830Z,1010.91
2016-05-16T13:59:42.864Z,1010.91
2016-05-16T14:00:42.898Z,1010.94
2016-05-16T14:01:42.947Z,1010.9
2016-05-16T14:02:42.981Z,1010.97
2016-05-16T14:03:43.030Z,1010.93
2016-05-16T14:04:43.065Z,1010.9
2016-05-16T14:05:43.099Z,1010.92
2016-05-16T14:06:43.133Z,1010.95
2016-05-16T14:07:43.167Z,1010.94
2016-05-16T14:08:43.200Z,1010.91
2016-05-16T14:09:43.250Z,1010.89
2016-05-16T14:10:43.283Z,1010.88
2016-05-16T14:11:43.318Z,1010.9
2016-05-16T14:12:43.352Z,1010.84
2016-05-16T14:13:43.402Z,1010.84
2016-05-16T14:14:43.435Z,1010.8
2016-05-16T14:15:43.469Z,1010.84
2016-05-16T14:16:43.503Z,1010.93
2016-05-16T14:17:43.553Z,1010.89
2016-05-16T14:18:43.587Z,1010.76
2016-05-16T14:19:43.621Z,1010.83
2016-05-16T14:20:43.655Z,1010.89
2016-05-16T14:21:43.704Z,1010.75
2016-05-16T14:22:43.738Z,1010.8
2016-05-16T14:23:43.771Z,1010.87
2016-05-16T14:24:43.806Z,1010.78
2016-05-16T14:25:43.856Z,1010.75
2016-05-16T14:26:43.889Z,1010.76
2016-05-16T14:27:43.924Z,1010.73
2016-05-16T14:28:43.957Z,1010.7
2016-05-16T14:29:43.992Z,1010.69
2016-05-16T14:30:44.040Z,1010.66
2016-05-16T14:31:44.075Z,1010.68
2016-05-16T14:32:44.109Z,1010.75
2016-05-16T14:33:44.143Z,1010.64
2016-05-16T14:34:44.192Z,1010.65
2016-05-16T14:35:44.226Z,1010.66
2016-05-16T14:36:44.260Z,1010.66
2016-05-16T14:37:44.294Z,1010.63
2016-05-16T14:38:44.344Z,1010.77
2016-05-16T14:39:44.377Z,1010.54
2016-05-16T14:40:44.537Z,1010.57
2016-05-16T14:41:44.445Z,1010.65
2016-05-16T14:42:44.480Z,1010.48
2016-05-16T14:43:44.529Z,1010.54
2016-05-16T14:44:44.563Z,1010.52
2016-05-16T14:45:44.596Z,1010.57
2016-05-16T14:46:44.630Z,1010.48
2016-05-16T14:47:44.665Z,1010.58
2016-05-16T14:48:44.714Z,1010.55
2016-05-16T14:49:44.749Z,1010.54
2016-05-16T14:50:44.798Z,1010.49
2016-05-16T14:51:44.832Z,1010.54
2016-05-16T14:52:44.866Z,1010.61
2016-05-16T14:53:44.899Z,1010.54
2016-05-16T14:54:44.934Z,1010.6
2016-05-16T14:55:44.983Z,1010.61
2016-05-16T14:56:45.017Z,1010.52
2016-05-16T14:57:45.051Z,1010.63
2016-05-16T14:58:45.084Z,1010.61
2016-05-16T14:59:45.118Z,1010.51
2016-05-16T15:00:45.169Z,1010.61
2016-05-16T15:01:45.202Z,1010.56
2016-05-16T15:02:45.237Z,1010.59
2016-05-16T15:03:45.270Z,1010.64
2016-05-16T15:04:45.304Z,1010.57
2016-05-16T15:05:45.353Z,1010.64
2016-05-16T15:06:45.388Z,1010.55
2016-05-16T15:07:45.422Z,1010.57
2016-05-16T15:08:45.456Z,1010.63
2016-05-16T15:09:45.505Z,1010.65
2016-05-16T15:10:45.539Z,1010.68
2016-05-16T15:11:45.573Z,1010.64
2016-05-16T15:12:45.622Z,1010.73
2016-05-16T15:13:45.641Z,1010.74
2016-05-16T15:14:45.690Z,1010.74
2016-05-16T15:15:45.725Z,1010.73
2016-05-16T15:16:45.758Z,1010.77
2016-05-16T15:17:45.792Z,1010.74
2016-05-16T15:18:45.841Z,1010.8
2016-05-16T15:19:45.876Z,1010.72
2016-05-16T15:20:45.909Z,1010.77
2016-05-16T15:21:45.943Z,1010.76
2016-05-16T15:22:45.994Z,1010.73
2016-05-16T15:23:46.043Z,1010.82
2016-05-16T15:24:46.061Z,1010.81
2016-05-16T15:25:46.095Z,1010.77
2016-05-16T15:26:46.145Z,1010.77
2016-05-16T15:27:46.178Z,1010.74
2016-05-16T15:28:46.212Z,1010.81
2016-05-16T15:29:46.246Z,1010.86
2016-05-16T15:30:46.296Z,1010.84
2016-05-16T15:31:46.329Z,1010.77
2016-05-16T15:32:46.364Z,1010.83
2016-05-16T15:33:46.398Z,1010.82
2016-05-16T15:34:46.447Z,1010.8
2016-05-16T15:35:46.482Z,1010.75
2016-05-16T15:36:46.578Z,1010.73
2016-05-16T15:37:46.550Z,1010.72
2016-05-16T15:38:46.583Z,1010.78
2016-05-16T15:39:46.633Z,1010.73
2016-05-16T15:40:46.666Z,1010.79
2016-05-16T15:41:46.701Z,1010.77
2016-05-16T15:42:46.750Z,1010.81
2016-05-16T15:43:46.784Z,1010.76
2016-05-16T15:44:46.819Z,1010.69
2016-05-16T15:45:46.852Z,1010.78
2016-05-16T15:46:46.886Z,1010.8
2016-05-16T15:47:46.935Z,1010.84
2016-05-16T15:48:46.969Z,1010.79
2016-05-16T15:49:47.003Z,1010.8
2016-05-16T15:50:47.038Z,1010.79
2016-05-16T15:51:47.087Z,1010.83
2016-05-16T15:52:47.121Z,1010.83
2016-05-16T15:53:47.154Z,1010.81
2016-05-16T15:54:47.313Z,1010.85
2016-05-16T15:55:47.285Z,1010.76
2016-05-16T15:56:47.490Z,1010.79
2016-05-16T15:57:47.416Z,1010.83
2016-05-16T15:58:47.340Z,1010.79
2016-05-16T15:59:47.390Z,1010.79
2016-05-16T16:00:47.423Z,1010.83
2016-05-16T16:01:47.457Z,1010.81
2016-05-16T16:02:47.507Z,1010.83
2016-05-16T16:03:47.540Z,1010.79
2016-05-16T16:04:47.576Z,1010.82
2016-05-16T16:05:47.609Z,1010.77
2016-05-16T16:06:47.659Z,1010.83
2016-05-16T16:07:47.692Z,1010.8
2016-05-16T16:08:47.726Z,1010.84
2016-05-16T16:09:47.761Z,1010.78
2016-05-16T16:10:47.809Z,1010.85
2016-05-16T16:11:47.844Z,1010.85
2016-05-16T16:12:47.878Z,1010.82
2016-05-16T16:13:47.912Z,1010.91
2016-05-16T16:14:47.961Z,1010.85
2016-05-16T16:15:47.994Z,1010.82
2016-05-16T16:16:48.030Z,1010.94
2016-05-16T16:17:48.063Z,1010.9
2016-05-16T16:18:48.113Z,1010.92
2016-05-16T16:19:48.146Z,1010.96
2016-05-16T16:20:48.180Z,1010.88
2016-05-16T16:21:48.214Z,1010.95
2016-05-16T16:22:48.263Z,1010.93
2016-05-16T16:23:48.298Z,1010.99
2016-05-16T16:24:48.332Z,1010.98
2016-05-16T16:25:48.382Z,1010.94
2016-05-16T16:26:48.415Z,1010.93
2016-05-16T16:27:48.449Z,1010.93
2016-05-16T16:28:48.483Z,1010.96
2016-05-16T16:29:48.533Z,1010.85
2016-05-16T16:30:48.567Z,1010.88
2016-05-16T16:31:48.601Z,1010.93
2016-05-16T16:32:48.635Z,1010.84
2016-05-16T16:33:48.668Z,1010.94
2016-05-16T16:34:48.765Z,1010.92
2016-05-16T16:35:48.752Z,1010.97
2016-05-16T16:36:48.787Z,1010.98
2016-05-16T16:37:48.836Z,1010.95
2016-05-16T16:38:48.869Z,1010.95
2016-05-16T16:39:48.950Z,1011
2016-05-16T16:40:48.954Z,1011
2016-05-16T16:41:48.971Z,1011.03
2016-05-16T16:42:49.020Z,1011.12
2016-05-16T16:43:49.180Z,1011.04
2016-05-16T16:44:49.089Z,1011.01
2016-05-16T16:45:49.123Z,1011.08
2016-05-16T16:46:49.172Z,1011.02
2016-05-16T16:47:49.206Z,1011.02
2016-05-16T16:48:49.241Z,1011.01
2016-05-16T16:49:49.275Z,1011.01
2016-05-16T16:50:49.605Z,1011.05
2016-05-16T16:51:49.358Z,1010.98
2016-05-16T16:52:49.391Z,1010.99
2016-05-16T16:53:49.425Z,1010.99
2016-05-16T16:54:49.491Z,1011.01
2016-05-16T16:55:49.509Z,1010.97
2016-05-16T16:56:49.543Z,1011.01
2016-05-16T16:57:49.593Z,1011.01
2016-05-16T16:58:49.626Z,1011.04
2016-05-16T16:59:49.661Z,1011.03
2016-05-16T17:00:49.694Z,1010.98
2016-05-16T17:01:49.744Z,1010.94
2016-05-16T17:02:49.778Z,1010.99
2016-05-16T17:03:49.812Z,1010.96
2016-05-16T17:04:49.846Z,1011.04
2016-05-16T17:05:49.989Z,1011.01
2016-05-16T17:06:49.929Z,1010.99
2016-05-16T17:07:50.057Z,1010.98
2016-05-16T17:08:49.998Z,1010.99
2016-05-16T17:09:50.031Z,1010.94
2016-05-16T17:10:50.081Z,1010.97
2016-05-16T17:11:50.114Z,1010.92
2016-05-16T17:12:50.149Z,1010.98
2016-05-16T17:13:50.183Z,1010.91
2016-05-16T17:14:50.232Z,1010.93
2016-05-16T17:15:50.267Z,1010.86
2016-05-16T17:16:50.301Z,1010.88
2016-05-16T17:17:50.334Z,1010.9
2016-05-16T17:18:50.383Z,1010.87
2016-05-16T17:19:50.417Z,1010.86
2016-05-16T17:20:50.452Z,1010.89
2016-05-16T17:21:50.486Z,1010.92
2016-05-16T17:22:50.535Z,1010.85
2016-05-16T17:23:50.569Z,1010.86
2016-05-16T17:24:50.602Z,1010.87
2016-05-16T17:25:50.652Z,1010.87
2016-05-16T17:26:50.686Z,1010.86
2016-05-16T17:27:50.721Z,1010.82
2016-05-16T17:28:50.754Z,1010.84
2016-05-16T17:29:50.804Z,1010.83
2016-05-16T17:30:50.838Z,1010.87
2016-05-16T17:31:50.871Z,1010.89
2016-05-16T17:32:50.905Z,1010.9
2016-05-16T17:33:50.939Z,1010.9
2016-05-16T17:34:50.990Z,1010.86
2016-05-16T17:35:51.023Z,1010.92
2016-05-16T17:36:51.166Z,1010.83
2016-05-16T17:37:51.091Z,1010.86
2016-05-16T17:38:51.126Z,1010.88
2016-05-16T17:39:51.174Z,1010.89
2016-05-16T17:40:51.209Z,1010.91
2016-05-16T17:41:51.242Z,1010.87
2016-05-16T17:42:51.276Z,1010.88
2016-05-16T17:43:51.326Z,1010.9
2016-05-16T17:44:51.360Z,1010.9
2016-05-16T17:45:51.394Z,1010.89
2016-05-16T17:46:51.443Z,1010.86
2016-05-16T17:47:51.478Z,1010.86
2016-05-16T17:48:51.511Z,1010.89
2016-05-16T17:49:51.545Z,1010.85
2016-05-16T17:50:51.578Z,1010.85
2016-05-16T17:51:51.675Z,1010.83
2016-05-16T17:52:51.663Z,1010.85
2016-05-16T17:53:51.697Z,1010.83
2016-05-16T17:54:51.731Z,1010.86
2016-05-16T17:55:51.764Z,1010.81
2016-05-16T17:56:51.908Z,1010.77
2016-05-16T17:57:51.848Z,1010.8
2016-05-16T17:58:51.975Z,1010.78
2016-05-16T17:59:51.916Z,1010.77
2016-05-16T18:00:51.966Z,1010.77
2016-05-16T18:01:52.000Z,1010.77
2016-05-16T18:02:52.049Z,1010.77
2016-05-16T18:03:52.114Z,1010.77
2016-05-16T18:04:52.117Z,1010.78
2016-05-16T18:05:52.151Z,1010.77
2016-05-16T18:06:52.482Z,1010.75
2016-05-16T18:07:52.218Z,1010.73
2016-05-16T18:08:52.252Z,1010.73
2016-05-16T18:09:52.302Z,1010.74
2016-05-16T18:10:52.337Z,1010.69
2016-05-16T18:11:52.386Z,1010.72
2016-05-16T18:12:52.529Z,1010.73
2016-05-16T18:13:52.454Z,1010.74
2016-05-16T18:14:52.488Z,1010.73
2016-05-16T18:15:52.521Z,1010.72
2016-05-16T18:16:52.556Z,1010.74
2016-05-16T18:17:52.589Z,1010.71
2016-05-16T18:18:52.639Z,1010.78
2016-05-16T18:19:52.673Z,1010.7
2016-05-16T18:20:52.706Z,1010.73
2016-05-16T18:21:52.959Z,1010.66
2016-05-16T18:22:52.774Z,1010.69
2016-05-16T18:23:52.825Z,1010.73
